aviador You're here:

KLLJ Decoded Metar

CHALLIS in ID, USA
Report Time2018-07-18 22:55:00
UTC Time2018-07-18 23:47:52
Flight Rules vfr VFR
Wind250° at 12 Gusting to 20 kt
W.Decomp.*RWY 16: 3.5 kt HW 11.5 kt RCW
W.Rank250° ranks 15
Current wind is above 250° avg. (8.2)
Visibility9999 m
Phenomena:N/A
Clouds:N/A
Expected CloudBase > 12,800 ft AGL from Temp-Dew spread
CeilingNone
Temp33°C (ISA +28)
Dew Point01°C (13% RH)
Heat Index30.6°C
AAT26.8°C
QNH1019 hPa
Density Alt8,074 ft
Elevation5,039 ft
Report Wrong Elevation
Raw Report
KLLJ 182255Z AUTO 25012G20KT 10SM CLR 33/01 A3008 RMK AO2 SLP115
T03330011=

Extra information for KLLJ:More info

Metar Taf Metar & Taf Last 4 Metars F.Rules Stats Wind Profile Meteogram Temp Stats Airport Information Weather charts Add Link Nearby VenuesMetar ALERT Operation Metar Decoded Social comments

AIRNAV info for KLLJ